Noahs Ark — WDB7014 — position and weather

sailwx.info

Track history (hours):
 
Tides and Currents Weather Stations Pressure Air Temp Water Temp Dewpoint Dewpoint Depression Visibility Wind Speed Wind Dir Waves Ship Positions

Noahs Ark

Owner: PETTINGER, DAVID W, HARBOR, OR. More information available from US FCC via Universal Licensing System and Coast Guard Vessel Documentation Center.

Last reported at 2017-Oct-22 23:32 UTC. Time now 2017-Oct-23 06:09 UTC.
Position N 44°30' W 124°10'.

Type: Fishing. MMSI: 366934770.

Date/timePositionNaut miles runAvg speedWind from/ knotsBaromVisibWave heightAir tempDewpointWater temp
2017-Oct-22 23:32N 44°30' W 124°10'  
2017-Oct-18 16:51N 38°46' W 123°40'3 9.1
2017-Oct-18 16:30N 38°43' W 123°38'4 8.8
2017-Oct-18 16:00N 38°39' W 123°35'4 8.7
2017-Oct-18 15:30N 38°36' W 123°32'4 8.8
2017-Oct-18 15:00N 38°32' W 123°30'9 8.6
2017-Oct-18 14:00N 38°25' W 123°23'4 8.9
2017-Oct-18 13:30N 38°21' W 123°20'5 9.1
2017-Oct-18 13:00N 38°17' W 123°17'5 9.0
2017-Oct-18 12:30N 38°13' W 123°14'5 9.2
2017-Oct-18 12:00N 38°09' W 123°11'5 9.3
2017-Oct-18 11:30N 38°05' W 123°09'5 9.5
2017-Oct-18 11:00N 38°01' W 123°06'5 9.2
2017-Oct-18 10:30N 37°57' W 123°03'5 9.3
2017-Oct-18 10:00N 37°53' W 123°00'5 9.5
2017-Oct-18 09:31N 37°48' W 122°58'5 9.4
2017-Oct-18 09:00N 37°44' W 122°55'5 9.4
2017-Oct-18 08:31N 37°40' W 122°52'5 9.4
2017-Oct-18 08:00N 37°36' W 122°49'5 9.2
2017-Oct-18 07:30N 37°31' W 122°48'5 9.4
2017-Oct-18 07:00N 37°27' W 122°46'5 9.4
2017-Oct-18 06:30N 37°23' W 122°44'5 9.4
2017-Oct-18 06:00N 37°18' W 122°42'5 9.2
2017-Oct-18 05:30N 37°14' W 122°39'5 9.1
2017-Oct-18 05:00N 37°10' W 122°36'5 9.1
2017-Oct-18 04:30N 37°06' W 122°34'5 9.0
2017-Oct-18 04:00N 37°03' W 122°31'4 8.8
2017-Oct-18 03:31N 36°59' W 122°28'4 8.5
2017-Oct-18 03:00N 36°55' W 122°26'4 8.3
2017-Oct-18 02:30N 36°51' W 122°23'4 8.0
2017-Oct-18 02:00N 36°48' W 122°21'4 8.1
2017-Oct-18 01:30N 36°44' W 122°18'77 9.2
2017-Oct-17 17:12N 35°40' W 121°26'210.2
2017-Oct-17 17:00N 35°39' W 121°25'510.2
2017-Oct-17 16:30N 35°34' W 121°21'510.2
2017-Oct-17 16:00N 35°30' W 121°18'9 9.7
2017-Oct-17 15:03N 35°23' W 121°11'1 9.5
2017-Oct-17 14:56N 35°22' W 121°10'4 9.6
2017-Oct-17 14:30N 35°19' W 121°07'5 9.4
2017-Oct-17 14:00N 35°15' W 121°04'5 9.6
2017-Oct-17 13:30N 35°11' W 121°01'5 9.4
2017-Oct-17 13:00N 35°07' W 120°58'5 9.4
2017-Oct-17 12:30N 35°02' W 120°56'5 9.3
2017-Oct-17 12:00N 34°58' W 120°53'5 9.5
2017-Oct-17 11:30N 34°54' W 120°51'5 9.6
2017-Oct-17 11:00N 34°49' W 120°49'5 9.5
2017-Oct-17 10:30N 34°45' W 120°47'5 9.7
2017-Oct-17 10:00N 34°40' W 120°45'5 9.5
2017-Oct-17 09:30N 34°36' W 120°42'4 9.1
2017-Oct-17 09:00N 34°32' W 120°40'5 9.1
2017-Oct-17 08:25N 34°28' W 120°35'4 9.3
2017-Oct-17 08:00N 34°26' W 120°31'5 9.5
2017-Oct-17 07:30N 34°23' W 120°27'5 9.2
2017-Oct-17 07:00N 34°21' W 120°22'5 9.3
2017-Oct-17 06:28N 34°19' W 120°16'5 9.2
2017-Oct-17 05:56N 34°18' W 120°10'5 9.5
2017-Oct-17 05:27N 34°17' W 120°05'4 9.6
2017-Oct-17 05:00N 34°15' W 119°60'5 9.5
2017-Oct-17 04:30N 34°14' W 119°55'5 9.3
2017-Oct-17 04:00N 34°12' W 119°49'7 9.1
2017-Oct-17 03:13N 34°10' W 119°41'2 9.1
2017-Oct-17 03:00N 34°09' W 119°39'5 9.6
2017-Oct-17 02:30N 34°08' W 119°33'5 9.6
2017-Oct-17 02:00N 34°05' W 119°29'5 9.3
2017-Oct-17 01:29N 34°03' W 119°24'4 9.2
2017-Oct-17 01:00N 34°01' W 119°19'5 9.1
2017-Oct-17 00:29N 33°59' W 119°14'5 9.2
2017-Oct-16 23:58N 33°56' W 119°09'5 9.6
2017-Oct-16 23:30N 33°55' W 119°04'5 9.4
2017-Oct-16 23:00N 33°53' W 118°59'5 9.2
2017-Oct-16 22:30N 33°51' W 118°53'5 9.0
2017-Oct-16 21:58N 33°50' W 118°48'4 9.0
2017-Oct-16 21:29N 33°48' W 118°43'5 9.0
2017-Oct-16 20:56N 33°46' W 118°37'5 9.3
2017-Oct-16 20:25N 33°45' W 118°32'4 9.2
2017-Oct-16 19:59N 33°44' W 118°27'4 9.3
2017-Oct-16 19:30N 33°43' W 118°22'5 9.2
2017-Oct-16 19:00N 33°42' W 118°17'4 8.8
2017-Oct-16 18:30N 33°42' W 118°11'3 6.8
2017-Oct-16 18:00N 33°46' W 118°12'2 4.0
2017-Oct-16 17:30N 33°44' W 118°11'4 8.2
2017-Oct-16 16:57N 33°40' W 118°14'4 8.4
2017-Oct-16 16:29N 33°38' W 118°18'4 9.1
2017-Oct-16 16:00N 33°36' W 118°22'5 9.0
2017-Oct-16 15:27N 33°33' W 118°27'3 7.5
2017-Oct-16 15:00N 33°31' W 118°30'1 2.6
2017-Oct-16 14:30N 33°30' W 118°30'1 1.3
2017-Oct-16 13:30N 33°29' W 118°29'2 3.7
2017-Oct-16 12:58N 33°27' W 118°30'0 0.0
2017-Oct-16 12:30N 33°27' W 118°30'0 0.0
2017-Oct-16 12:00N 33°27' W 118°30'0 0.0
2017-Oct-16 11:30N 33°27' W 118°30'0 0.0
2017-Oct-16 11:00N 33°27' W 118°30'0 0.0
2017-Oct-16 09:52N 33°27' W 118°30'0 0.0
2017-Oct-16 09:30N 33°27' W 118°30'0 0.0
2017-Oct-16 09:00N 33°27' W 118°30'0 0.0
2017-Oct-16 08:30N 33°27' W 118°30'0 0.0
2017-Oct-16 08:00N 33°27' W 118°30'0 0.0
2017-Oct-16 03:31N 33°27' W 118°30'0 0.0
2017-Oct-16 03:24N 33°27' W 118°30'0 0.0
2017-Oct-16 03:00N 33°27' W 118°30'0 0.0
2017-Oct-16 02:30N 33°27' W 118°30'0 0.0
2017-Oct-16 02:00N 33°27' W 118°30'0 0.0
2017-Oct-16 00:54N 33°27' W 118°30'0 0.0
2017-Oct-16 00:28N 33°27' W 118°30'0 0.0
2017-Oct-15 23:57N 33°27' W 118°30'0 0.0
2017-Oct-15 23:30N 33°27' W 118°30'0 0.0
2017-Oct-15 23:00N 33°27' W 118°30'2 0.7
2017-Oct-15 20:35N 33°28' W 118°30'1 8.4
2017-Oct-15 20:28N 33°29' W 118°30'2 4.4
2017-Oct-15 19:59N 33°29' W 118°28'4 8.9
2017-Oct-15 19:30N 33°28' W 118°23'4 9.1
2017-Oct-15 19:00N 33°28' W 118°17'5 9.0
2017-Oct-15 18:30N 33°28' W 118°12'4 8.9
2017-Oct-15 18:00N 33°28' W 118°07'5 9.0
2017-Oct-15 17:30N 33°28' W 118°01'4 8.9
2017-Oct-15 17:00N 33°28' W 117°56'5 9.1
2017-Oct-15 16:31N 33°28' W 117°51'4 8.9
2017-Oct-15 16:00N 33°28' W 117°45'1 2.4
2017-Oct-15 15:30N 33°27' W 117°44'1 2.8
2017-Oct-15 15:00N 33°26' W 117°43'6 6.3
2017-Oct-15 14:00N 33°22' W 117°38'1 1.2
2017-Oct-15 13:30N 33°22' W 117°38'1 2.4
2017-Oct-15 13:01N 33°23' W 117°37'0 0.0
2017-Oct-15 12:30N 33°23' W 117°37'0 0.0
2017-Oct-15 12:00N 33°23' W 117°37'0 0.0
2017-Oct-15 11:30N 33°23' W 117°37'0 0.0
2017-Oct-15 11:00N 33°23' W 117°37'0 0.0
2017-Oct-15 10:30N 33°23' W 117°37'0 0.0
2017-Oct-15 10:00N 33°23' W 117°37'0 0.0
2017-Oct-15 09:30N 33°23' W 117°37'0 0.0
2017-Oct-15 09:00N 33°23' W 117°37'0 0.0
2017-Oct-15 08:30N 33°23' W 117°37'0 0.0
2017-Oct-15 08:00N 33°23' W 117°37'0 0.0
2017-Oct-15 07:31N 33°23' W 117°37'0 0.0
2017-Oct-15 07:00N 33°23' W 117°37'0 0.0
2017-Oct-15 06:30N 33°23' W 117°37'0 0.0
2017-Oct-15 06:00N 33°23' W 117°37'0 0.0
2017-Oct-15 05:31N 33°23' W 117°37'0 0.0
2017-Oct-15 05:00N 33°23' W 117°37'0 0.0
2017-Oct-15 04:30N 33°23' W 117°37'2 4.2
2017-Oct-15 04:00N 33°24' W 117°40'4 8.3
2017-Oct-15 03:30N 33°27' W 117°44'2 3.5
2017-Oct-15 03:00N 33°27' W 117°46'3 5.2
2017-Oct-15 02:30N 33°25' W 117°44'4 8.4
2017-Oct-15 02:00N 33°23' W 117°39'2 4.0
2017-Oct-15 01:30N 33°21' W 117°38'3 6.3
2017-Oct-15 01:00N 33°18' W 117°36'1 1.8
2017-Oct-15 00:30N 33°17' W 117°36'1 1.2
2017-Oct-15 00:00N 33°18' W 117°36'3 6.2
2017-Oct-14 23:30N 33°15' W 117°35'1 1.1
2017-Oct-14 23:00N 33°15' W 117°34'1 1.1
2017-Oct-14 22:30N 33°15' W 117°33'0 0.9
2017-Oct-14 22:00N 33°15' W 117°33'3 6.2
2017-Oct-14 21:30N 33°12' W 117°33'4 8.6
2017-Oct-14 21:00N 33°08' W 117°34'4 8.5
2017-Oct-14 20:30N 33°04' W 117°34'3 6.9
2017-Oct-14 20:00N 33°00' W 117°34'1 1.1
2017-Oct-14 19:30N 33°01' W 117°35'1 1.7
2017-Oct-14 19:00N 33°01' W 117°35'1 1.2
2017-Oct-14 18:30N 33°01' W 117°35'5 8.7
2017-Oct-14 17:59N 32°58' W 117°31'4 9.2
2017-Oct-14 17:30N 32°55' W 117°27'4 8.4
2017-Oct-14 17:00N 32°52' W 117°23'1 1.8
2017-Oct-14 16:30N 32°51' W 117°24'2 4.3
2017-Oct-14 16:00N 32°49' W 117°24'4 8.9
2017-Oct-14 15:30N 32°45' W 117°24'4 8.9
2017-Oct-14 15:00N 32°41' W 117°23'5 9.1
2017-Oct-14 14:30N 32°36' W 117°22'1 2.3
2017-Oct-14 14:00N 32°35' W 117°21'1 1.1
2017-Oct-14 13:30N 32°35' W 117°20'3 5.4
2017-Oct-14 13:00N 32°38' W 117°21'2 4.6
2017-Oct-14 12:30N 32°40' W 117°22'1 1.0
2017-Oct-14 12:00N 32°40' W 117°22'0 0.2
2017-Oct-14 11:30N 32°40' W 117°22'2 4.5
2017-Oct-14 11:00N 32°38' W 117°22'4 7.3
2017-Oct-14 10:30N 32°35' W 117°21'1 2.4
2017-Oct-14 10:00N 32°36' W 117°21'4 8.5
2017-Oct-14 09:30N 32°40' W 117°23'4 8.6
2017-Oct-14 09:00N 32°44' W 117°23'4 8.4
2017-Oct-14 08:30N 32°48' W 117°23'3 6.4
2017-Oct-14 08:00N 32°51' W 117°23'1 1.5
2017-Oct-14 07:30N 32°52' W 117°24'4 8.5
2017-Oct-14 07:00N 32°54' W 117°29'4 8.8
2017-Oct-14 06:30N 32°55' W 117°34'4 8.8
2017-Oct-14 06:00N 32°56' W 117°39'4 8.6
2017-Oct-14 05:30N 32°57' W 117°44'4 8.8
2017-Oct-14 05:00N 32°57' W 117°49'4 8.9
2017-Oct-14 04:30N 32°58' W 117°54'4 8.9
2017-Oct-14 04:00N 32°59' W 117°60'4 8.9
2017-Oct-14 03:30N 32°60' W 118°05'5 8.7
2017-Oct-14 02:57N 33°00' W 118°10'4 8.9
2017-Oct-14 02:30N 33°01' W 118°15'5 8.5
2017-Oct-14 01:53N 33°03' W 118°21'1 3.9
2017-Oct-14 01:30N 33°04' W 118°22'0 0.9
2017-Oct-14 01:00N 33°05' W 118°22'1 2.5
2017-Oct-14 00:30N 33°05' W 118°24'1 1.9
2017-Oct-14 00:00N 33°05' W 118°23'4 7.1
2017-Oct-13 23:30N 33°07' W 118°20'4 8.9
2017-Oct-13 23:00N 33°11' W 118°18'3 5.7
2017-Oct-13 22:30N 33°14' W 118°17'0 0.5
2017-Oct-13 21:59N 33°14' W 118°17'1 1.8
2017-Oct-13 21:30N 33°13' W 118°17'2 3.5
2017-Oct-13 20:59N 33°11' W 118°18'3 5.4
2017-Oct-13 20:30N 33°14' W 118°17'4 7.5
2017-Oct-13 20:00N 33°16' W 118°20'2 3.7
2017-Oct-13 19:30N 33°18' W 118°21'0 0.6
2017-Oct-13 18:55N 33°18' W 118°22'4 9.1
2017-Oct-13 18:30N 33°18' W 118°26'4 8.2
2017-Oct-13 17:59N 33°20' W 118°31'4 8.7
2017-Oct-13 17:30N 33°23' W 118°35'4 8.8
2017-Oct-13 17:00N 33°25' W 118°40'2 4.3
2017-Oct-13 16:30N 33°26' W 118°42'0 0.6
2017-Oct-13 16:01N 33°26' W 118°42'1 1.8
2017-Oct-13 15:30N 33°25' W 118°41'2 3.4
2017-Oct-13 15:00N 33°24' W 118°40'2 3.3
2017-Oct-13 14:29N 33°25' W 118°41'2 4.2
2017-Oct-13 13:59N 33°27' W 118°41'0 0.8
2017-Oct-13 13:30N 33°27' W 118°41'1 2.5
2017-Oct-13 13:00N 33°26' W 118°40'4 8.7
2017-Oct-13 12:30N 33°23' W 118°36'5 8.8
2017-Oct-13 11:59N 33°21' W 118°32'4 8.9
2017-Oct-13 11:30N 33°18' W 118°27'5 9.3
2017-Oct-13 11:00N 33°18' W 118°22'4 8.0
2017-Oct-13 10:30N 33°19' W 118°18'2 4.6
2017-Oct-13 10:00N 33°21' W 118°19'0 0.0
2017-Oct-13 09:30N 33°21' W 118°19'0 0.0
2017-Oct-13 09:00N 33°21' W 118°19'0 0.0
2017-Oct-13 08:30N 33°21' W 118°19'0 0.0
2017-Oct-13 07:59N 33°21' W 118°19'0 0.0
2017-Oct-13 07:30N 33°21' W 118°19'0 0.0
2017-Oct-13 07:00N 33°21' W 118°19'0 0.0
2017-Oct-13 06:30N 33°21' W 118°19'0 0.0
2017-Oct-13 06:00N 33°21' W 118°19'0 0.0
2017-Oct-13 05:30N 33°21' W 118°19'0 0.0
2017-Oct-13 05:00N 33°21' W 118°19'0 0.0
2017-Oct-13 04:30N 33°21' W 118°19'0 0.0
2017-Oct-13 04:00N 33°21' W 118°19'0 0.0
2017-Oct-13 03:30N 33°21' W 118°19'0 0.0
2017-Oct-13 03:00N 33°21' W 118°19'0 0.0
2017-Oct-13 02:30N 33°21' W 118°19'0 0.0
2017-Oct-13 02:00N 33°21' W 118°19'0 0.0
2017-Oct-13 01:30N 33°21' W 118°19'0 0.0
2017-Oct-13 01:01N 33°21' W 118°19'0 0.0
2017-Oct-13 00:30N 33°21' W 118°19'0 0.0
2017-Oct-13 00:00N 33°21' W 118°19'  
Track history (hours):
 
Tides and Currents Weather Stations Pressure Air Temp Water Temp Dewpoint Dewpoint Depression Visibility Wind Speed Wind Dir Waves Ship Positions

Noahs Ark

Owner: PETTINGER, DAVID W, HARBOR, OR. More information available from US FCC via Universal Licensing System and Coast Guard Vessel Documentation Center.

Last reported at 2017-Oct-22 23:32 UTC. Time now 2017-Oct-23 06:09 UTC.
Position N 44°30' W 124°10'.

Type: Fishing. MMSI: 366934770.

Date/timePositionNaut miles runAvg speedWind from/ knotsBaromVisibWave heightAir tempDewpointWater temp
2017-Oct-22 23:32N 44°30' W 124°10'  
2017-Oct-18 16:51N 38°46' W 123°40'3 9.1
2017-Oct-18 16:30N 38°43' W 123°38'4 8.8
2017-Oct-18 16:00N 38°39' W 123°35'4 8.7
2017-Oct-18 15:30N 38°36' W 123°32'4 8.8
2017-Oct-18 15:00N 38°32' W 123°30'9 8.6
2017-Oct-18 14:00N 38°25' W 123°23'4 8.9
2017-Oct-18 13:30N 38°21' W 123°20'5 9.1
2017-Oct-18 13:00N 38°17' W 123°17'5 9.0
2017-Oct-18 12:30N 38°13' W 123°14'5 9.2
2017-Oct-18 12:00N 38°09' W 123°11'5 9.3
2017-Oct-18 11:30N 38°05' W 123°09'5 9.5
2017-Oct-18 11:00N 38°01' W 123°06'5 9.2
2017-Oct-18 10:30N 37°57' W 123°03'5 9.3
2017-Oct-18 10:00N 37°53' W 123°00'5 9.5
2017-Oct-18 09:31N 37°48' W 122°58'5 9.4
2017-Oct-18 09:00N 37°44' W 122°55'5 9.4
2017-Oct-18 08:31N 37°40' W 122°52'5 9.4
2017-Oct-18 08:00N 37°36' W 122°49'5 9.2
2017-Oct-18 07:30N 37°31' W 122°48'5 9.4
2017-Oct-18 07:00N 37°27' W 122°46'5 9.4
2017-Oct-18 06:30N 37°23' W 122°44'5 9.4
2017-Oct-18 06:00N 37°18' W 122°42'5 9.2
2017-Oct-18 05:30N 37°14' W 122°39'5 9.1
2017-Oct-18 05:00N 37°10' W 122°36'5 9.1
2017-Oct-18 04:30N 37°06' W 122°34'5 9.0
2017-Oct-18 04:00N 37°03' W 122°31'4 8.8
2017-Oct-18 03:31N 36°59' W 122°28'4 8.5
2017-Oct-18 03:00N 36°55' W 122°26'4 8.3
2017-Oct-18 02:30N 36°51' W 122°23'4 8.0
2017-Oct-18 02:00N 36°48' W 122°21'4 8.1
2017-Oct-18 01:30N 36°44' W 122°18'77 9.2
2017-Oct-17 17:12N 35°40' W 121°26'210.2
2017-Oct-17 17:00N 35°39' W 121°25'510.2
2017-Oct-17 16:30N 35°34' W 121°21'510.2
2017-Oct-17 16:00N 35°30' W 121°18'9 9.7
2017-Oct-17 15:03N 35°23' W 121°11'1 9.5
2017-Oct-17 14:56N 35°22' W 121°10'4 9.6
2017-Oct-17 14:30N 35°19' W 121°07'5 9.4
2017-Oct-17 14:00N 35°15' W 121°04'5 9.6
2017-Oct-17 13:30N 35°11' W 121°01'5 9.4
2017-Oct-17 13:00N 35°07' W 120°58'5 9.4
2017-Oct-17 12:30N 35°02' W 120°56'5 9.3
2017-Oct-17 12:00N 34°58' W 120°53'5 9.5
2017-Oct-17 11:30N 34°54' W 120°51'5 9.6
2017-Oct-17 11:00N 34°49' W 120°49'5 9.5
2017-Oct-17 10:30N 34°45' W 120°47'5 9.7
2017-Oct-17 10:00N 34°40' W 120°45'5 9.5
2017-Oct-17 09:30N 34°36' W 120°42'4 9.1
2017-Oct-17 09:00N 34°32' W 120°40'5 9.1
2017-Oct-17 08:25N 34°28' W 120°35'4 9.3
2017-Oct-17 08:00N 34°26' W 120°31'5 9.5
2017-Oct-17 07:30N 34°23' W 120°27'5 9.2
2017-Oct-17 07:00N 34°21' W 120°22'5 9.3
2017-Oct-17 06:28N 34°19' W 120°16'5 9.2
2017-Oct-17 05:56N 34°18' W 120°10'5 9.5
2017-Oct-17 05:27N 34°17' W 120°05'4 9.6
2017-Oct-17 05:00N 34°15' W 119°60'5 9.5
2017-Oct-17 04:30N 34°14' W 119°55'5 9.3
2017-Oct-17 04:00N 34°12' W 119°49'7 9.1
2017-Oct-17 03:13N 34°10' W 119°41'2 9.1
2017-Oct-17 03:00N 34°09' W 119°39'5 9.6
2017-Oct-17 02:30N 34°08' W 119°33'5 9.6
2017-Oct-17 02:00N 34°05' W 119°29'5 9.3
2017-Oct-17 01:29N 34°03' W 119°24'4 9.2
2017-Oct-17 01:00N 34°01' W 119°19'5 9.1
2017-Oct-17 00:29N 33°59' W 119°14'5 9.2
2017-Oct-16 23:58N 33°56' W 119°09'5 9.6
2017-Oct-16 23:30N 33°55' W 119°04'5 9.4
2017-Oct-16 23:00N 33°53' W 118°59'5 9.2
2017-Oct-16 22:30N 33°51' W 118°53'5 9.0
2017-Oct-16 21:58N 33°50' W 118°48'4 9.0
2017-Oct-16 21:29N 33°48' W 118°43'5 9.0
2017-Oct-16 20:56N 33°46' W 118°37'5 9.3
2017-Oct-16 20:25N 33°45' W 118°32'4 9.2
2017-Oct-16 19:59N 33°44' W 118°27'4 9.3
2017-Oct-16 19:30N 33°43' W 118°22'5 9.2
2017-Oct-16 19:00N 33°42' W 118°17'4 8.8
2017-Oct-16 18:30N 33°42' W 118°11'3 6.8
2017-Oct-16 18:00N 33°46' W 118°12'2 4.0
2017-Oct-16 17:30N 33°44' W 118°11'4 8.2
2017-Oct-16 16:57N 33°40' W 118°14'4 8.4
2017-Oct-16 16:29N 33°38' W 118°18'4 9.1
2017-Oct-16 16:00N 33°36' W 118°22'5 9.0
2017-Oct-16 15:27N 33°33' W 118°27'3 7.5
2017-Oct-16 15:00N 33°31' W 118°30'1 2.6
2017-Oct-16 14:30N 33°30' W 118°30'1 1.3
2017-Oct-16 13:30N 33°29' W 118°29'2 3.7
2017-Oct-16 12:58N 33°27' W 118°30'0 0.0
2017-Oct-16 12:30N 33°27' W 118°30'0 0.0
2017-Oct-16 12:00N 33°27' W 118°30'0 0.0
2017-Oct-16 11:30N 33°27' W 118°30'0 0.0
2017-Oct-16 11:00N 33°27' W 118°30'0 0.0
2017-Oct-16 09:52N 33°27' W 118°30'0 0.0
2017-Oct-16 09:30N 33°27' W 118°30'0 0.0
2017-Oct-16 09:00N 33°27' W 118°30'0 0.0
2017-Oct-16 08:30N 33°27' W 118°30'0 0.0
2017-Oct-16 08:00N 33°27' W 118°30'0 0.0
2017-Oct-16 03:31N 33°27' W 118°30'0 0.0
2017-Oct-16 03:24N 33°27' W 118°30'0 0.0
2017-Oct-16 03:00N 33°27' W 118°30'0 0.0
2017-Oct-16 02:30N 33°27' W 118°30'0 0.0
2017-Oct-16 02:00N 33°27' W 118°30'0 0.0
2017-Oct-16 00:54N 33°27' W 118°30'0 0.0
2017-Oct-16 00:28N 33°27' W 118°30'0 0.0
2017-Oct-15 23:57N 33°27' W 118°30'0 0.0
2017-Oct-15 23:30N 33°27' W 118°30'0 0.0
2017-Oct-15 23:00N 33°27' W 118°30'2 0.7
2017-Oct-15 20:35N 33°28' W 118°30'1 8.4
2017-Oct-15 20:28N 33°29' W 118°30'2 4.4
2017-Oct-15 19:59N 33°29' W 118°28'4 8.9
2017-Oct-15 19:30N 33°28' W 118°23'4 9.1
2017-Oct-15 19:00N 33°28' W 118°17'5 9.0
2017-Oct-15 18:30N 33°28' W 118°12'4 8.9
2017-Oct-15 18:00N 33°28' W 118°07'5 9.0
2017-Oct-15 17:30N 33°28' W 118°01'4 8.9
2017-Oct-15 17:00N 33°28' W 117°56'5 9.1
2017-Oct-15 16:31N 33°28' W 117°51'4 8.9
2017-Oct-15 16:00N 33°28' W 117°45'1 2.4
2017-Oct-15 15:30N 33°27' W 117°44'1 2.8
2017-Oct-15 15:00N 33°26' W 117°43'6 6.3
2017-Oct-15 14:00N 33°22' W 117°38'1 1.2
2017-Oct-15 13:30N 33°22' W 117°38'1 2.4
2017-Oct-15 13:01N 33°23' W 117°37'0 0.0
2017-Oct-15 12:30N 33°23' W 117°37'0 0.0
2017-Oct-15 12:00N 33°23' W 117°37'0 0.0
2017-Oct-15 11:30N 33°23' W 117°37'0 0.0
2017-Oct-15 11:00N 33°23' W 117°37'0 0.0
2017-Oct-15 10:30N 33°23' W 117°37'0 0.0
2017-Oct-15 10:00N 33°23' W 117°37'0 0.0
2017-Oct-15 09:30N 33°23' W 117°37'0 0.0
2017-Oct-15 09:00N 33°23' W 117°37'0 0.0
2017-Oct-15 08:30N 33°23' W 117°37'0 0.0
2017-Oct-15 08:00N 33°23' W 117°37'0 0.0
2017-Oct-15 07:31N 33°23' W 117°37'0 0.0
2017-Oct-15 07:00N 33°23' W 117°37'0 0.0
2017-Oct-15 06:30N 33°23' W 117°37'0 0.0
2017-Oct-15 06:00N 33°23' W 117°37'0 0.0
2017-Oct-15 05:31N 33°23' W 117°37'0 0.0
2017-Oct-15 05:00N 33°23' W 117°37'0 0.0
2017-Oct-15 04:30N 33°23' W 117°37'2 4.2
2017-Oct-15 04:00N 33°24' W 117°40'4 8.3
2017-Oct-15 03:30N 33°27' W 117°44'2 3.5
2017-Oct-15 03:00N 33°27' W 117°46'3 5.2
2017-Oct-15 02:30N 33°25' W 117°44'4 8.4
2017-Oct-15 02:00N 33°23' W 117°39'2 4.0
2017-Oct-15 01:30N 33°21' W 117°38'3 6.3
2017-Oct-15 01:00N 33°18' W 117°36'1 1.8
2017-Oct-15 00:30N 33°17' W 117°36'1 1.2
2017-Oct-15 00:00N 33°18' W 117°36'3 6.2
2017-Oct-14 23:30N 33°15' W 117°35'1 1.1
2017-Oct-14 23:00N 33°15' W 117°34'1 1.1
2017-Oct-14 22:30N 33°15' W 117°33'0 0.9
2017-Oct-14 22:00N 33°15' W 117°33'3 6.2
2017-Oct-14 21:30N 33°12' W 117°33'4 8.6
2017-Oct-14 21:00N 33°08' W 117°34'4 8.5
2017-Oct-14 20:30N 33°04' W 117°34'3 6.9
2017-Oct-14 20:00N 33°00' W 117°34'1 1.1
2017-Oct-14 19:30N 33°01' W 117°35'1 1.7
2017-Oct-14 19:00N 33°01' W 117°35'1 1.2
2017-Oct-14 18:30N 33°01' W 117°35'5 8.7
2017-Oct-14 17:59N 32°58' W 117°31'4 9.2
2017-Oct-14 17:30N 32°55' W 117°27'4 8.4
2017-Oct-14 17:00N 32°52' W 117°23'1 1.8
2017-Oct-14 16:30N 32°51' W 117°24'2 4.3
2017-Oct-14 16:00N 32°49' W 117°24'4 8.9
2017-Oct-14 15:30N 32°45' W 117°24'4 8.9
2017-Oct-14 15:00N 32°41' W 117°23'5 9.1
2017-Oct-14 14:30N 32°36' W 117°22'1 2.3
2017-Oct-14 14:00N 32°35' W 117°21'1 1.1
2017-Oct-14 13:30N 32°35' W 117°20'3 5.4
2017-Oct-14 13:00N 32°38' W 117°21'2 4.6
2017-Oct-14 12:30N 32°40' W 117°22'1 1.0
2017-Oct-14 12:00N 32°40' W 117°22'0 0.2
2017-Oct-14 11:30N 32°40' W 117°22'2 4.5
2017-Oct-14 11:00N 32°38' W 117°22'4 7.3
2017-Oct-14 10:30N 32°35' W 117°21'1 2.4
2017-Oct-14 10:00N 32°36' W 117°21'4 8.5
2017-Oct-14 09:30N 32°40' W 117°23'4 8.6
2017-Oct-14 09:00N 32°44' W 117°23'4 8.4
2017-Oct-14 08:30N 32°48' W 117°23'3 6.4
2017-Oct-14 08:00N 32°51' W 117°23'1 1.5
2017-Oct-14 07:30N 32°52' W 117°24'4 8.5
2017-Oct-14 07:00N 32°54' W 117°29'4 8.8
2017-Oct-14 06:30N 32°55' W 117°34'4 8.8
2017-Oct-14 06:00N 32°56' W 117°39'4 8.6
2017-Oct-14 05:30N 32°57' W 117°44'4 8.8
2017-Oct-14 05:00N 32°57' W 117°49'4 8.9
2017-Oct-14 04:30N 32°58' W 117°54'4 8.9
2017-Oct-14 04:00N 32°59' W 117°60'4 8.9
2017-Oct-14 03:30N 32°60' W 118°05'5 8.7
2017-Oct-14 02:57N 33°00' W 118°10'4 8.9
2017-Oct-14 02:30N 33°01' W 118°15'5 8.5
2017-Oct-14 01:53N 33°03' W 118°21'1 3.9
2017-Oct-14 01:30N 33°04' W 118°22'0 0.9
2017-Oct-14 01:00N 33°05' W 118°22'1 2.5
2017-Oct-14 00:30N 33°05' W 118°24'1 1.9
2017-Oct-14 00:00N 33°05' W 118°23'4 7.1
2017-Oct-13 23:30N 33°07' W 118°20'4 8.9
2017-Oct-13 23:00N 33°11' W 118°18'3 5.7
2017-Oct-13 22:30N 33°14' W 118°17'0 0.5
2017-Oct-13 21:59N 33°14' W 118°17'1 1.8
2017-Oct-13 21:30N 33°13' W 118°17'2 3.5
2017-Oct-13 20:59N 33°11' W 118°18'3 5.4
2017-Oct-13 20:30N 33°14' W 118°17'4 7.5
2017-Oct-13 20:00N 33°16' W 118°20'2 3.7
2017-Oct-13 19:30N 33°18' W 118°21'0 0.6
2017-Oct-13 18:55N 33°18' W 118°22'4 9.1
2017-Oct-13 18:30N 33°18' W 118°26'4 8.2
2017-Oct-13 17:59N 33°20' W 118°31'4 8.7
2017-Oct-13 17:30N 33°23' W 118°35'4 8.8
2017-Oct-13 17:00N 33°25' W 118°40'2 4.3
2017-Oct-13 16:30N 33°26' W 118°42'0 0.6
2017-Oct-13 16:01N 33°26' W 118°42'1 1.8
2017-Oct-13 15:30N 33°25' W 118°41'2 3.4
2017-Oct-13 15:00N 33°24' W 118°40'2 3.3
2017-Oct-13 14:29N 33°25' W 118°41'2 4.2
2017-Oct-13 13:59N 33°27' W 118°41'0 0.8
2017-Oct-13 13:30N 33°27' W 118°41'1 2.5
2017-Oct-13 13:00N 33°26' W 118°40'4 8.7
2017-Oct-13 12:30N 33°23' W 118°36'5 8.8
2017-Oct-13 11:59N 33°21' W 118°32'4 8.9
2017-Oct-13 11:30N 33°18' W 118°27'5 9.3
2017-Oct-13 11:00N 33°18' W 118°22'4 8.0
2017-Oct-13 10:30N 33°19' W 118°18'2 4.6
2017-Oct-13 10:00N 33°21' W 118°19'0 0.0
2017-Oct-13 09:30N 33°21' W 118°19'0 0.0
2017-Oct-13 09:00N 33°21' W 118°19'0 0.0
2017-Oct-13 08:30N 33°21' W 118°19'0 0.0
2017-Oct-13 07:59N 33°21' W 118°19'0 0.0
2017-Oct-13 07:30N 33°21' W 118°19'0 0.0
2017-Oct-13 07:00N 33°21' W 118°19'0 0.0
2017-Oct-13 06:30N 33°21' W 118°19'0 0.0
2017-Oct-13 06:00N 33°21' W 118°19'0 0.0
2017-Oct-13 05:30N 33°21' W 118°19'0 0.0
2017-Oct-13 05:00N 33°21' W 118°19'0 0.0
2017-Oct-13 04:30N 33°21' W 118°19'0 0.0
2017-Oct-13 04:00N 33°21' W 118°19'0 0.0
2017-Oct-13 03:30N 33°21' W 118°19'0 0.0
2017-Oct-13 03:00N 33°21' W 118°19'0 0.0
2017-Oct-13 02:30N 33°21' W 118°19'0 0.0
2017-Oct-13 02:00N 33°21' W 118°19'0 0.0
2017-Oct-13 01:30N 33°21' W 118°19'0 0.0
2017-Oct-13 01:01N 33°21' W 118°19'0 0.0
2017-Oct-13 00:30N 33°21' W 118°19'0 0.0
2017-Oct-13 00:00N 33°21' W 118°19'  

Dump ship's entire track history